createdAt,value
2022-09-29T00:00:11.480Z,8.59
2022-09-29T00:01:11.480Z,8.59
2022-09-29T00:02:11.587Z,8.43
2022-09-29T00:03:11.579Z,8.51
2022-09-29T00:04:11.491Z,8.55
2022-09-29T00:05:11.486Z,8.53
2022-09-29T00:06:11.490Z,8.46
2022-09-29T00:07:11.494Z,8.44
2022-09-29T00:08:11.497Z,8.36
2022-09-29T00:09:11.611Z,8.49
2022-09-29T00:10:11.486Z,8.53
2022-09-29T00:11:11.485Z,8.56
2022-09-29T00:12:11.484Z,8.57
2022-09-29T00:13:11.496Z,8.53
2022-09-29T00:14:11.521Z,8.61
2022-09-29T00:15:11.490Z,8.6
2022-09-29T00:19:11.499Z,8.42
2022-09-29T00:20:11.490Z,8.51
2022-09-29T00:21:11.493Z,8.33
2022-09-29T00:22:11.493Z,8.35
2022-09-29T00:23:11.514Z,8.26
2022-09-29T00:24:11.628Z,8.53
2022-09-29T00:25:11.494Z,8.56
2022-09-29T00:26:11.496Z,8.56
2022-09-29T00:27:11.489Z,8.83
2022-09-29T00:28:11.500Z,8.69
2022-09-29T00:29:11.488Z,8.75
2022-09-29T00:30:11.478Z,8.84
2022-09-29T00:31:11.558Z,8.9
2022-09-29T00:32:11.487Z,8.88
2022-09-29T00:33:11.498Z,8.86
2022-09-29T00:34:11.569Z,8.8
2022-09-29T00:35:11.501Z,8.86
2022-09-29T00:36:11.492Z,8.88
2022-09-29T00:37:11.493Z,8.89
2022-09-29T00:38:11.692Z,8.95
2022-09-29T00:39:11.485Z,9.04
2022-09-29T00:40:11.497Z,9.07
2022-09-29T00:41:11.502Z,9.2
2022-09-29T00:42:11.492Z,9.21
2022-09-29T00:43:11.496Z,9.14
2022-09-29T00:44:11.534Z,9.13
2022-09-29T00:45:11.483Z,9.17
2022-09-29T00:46:11.517Z,9.34
2022-09-29T00:47:11.479Z,9.41
2022-09-29T00:48:11.506Z,9.42
2022-09-29T00:49:11.485Z,9.56
2022-09-29T00:50:11.477Z,9.53
2022-09-29T00:51:11.485Z,9.23
2022-09-29T00:52:11.482Z,9.19
2022-09-29T00:53:11.515Z,9.7
2022-09-29T00:54:11.524Z,9.92
2022-09-29T00:55:11.482Z,9.92
2022-09-29T00:56:11.477Z,9.98
2022-09-29T00:57:11.484Z,9.89
2022-09-29T00:58:11.484Z,9.97
2022-09-29T00:59:11.484Z,9.95
2022-09-29T01:00:11.484Z,9.89
2022-09-29T01:01:11.616Z,9.82
2022-09-29T01:02:11.528Z,9.87
2022-09-29T01:03:11.492Z,9.88
2022-09-29T01:04:11.626Z,9.89
2022-09-29T01:05:11.484Z,9.84
2022-09-29T01:06:11.512Z,9.6
2022-09-29T01:07:11.494Z,9.46
2022-09-29T01:08:11.516Z,9.57
2022-09-29T01:09:11.503Z,9.57
2022-09-29T01:10:11.491Z,9.5
2022-09-29T01:11:11.499Z,9.48
2022-09-29T01:12:11.482Z,9.39
2022-09-29T01:13:11.501Z,9.29
2022-09-29T01:14:11.603Z,9.36
2022-09-29T01:15:11.497Z,9.48
2022-09-29T01:16:11.569Z,9.46
2022-09-29T01:17:11.496Z,9.48
2022-09-29T01:18:11.499Z,9.47
2022-09-29T01:19:11.509Z,9.47
2022-09-29T01:20:11.492Z,9.41
2022-09-29T01:21:11.494Z,9.38
2022-09-29T01:22:11.496Z,9.27
2022-09-29T01:23:11.587Z,8.95
2022-09-29T01:24:11.582Z,8.74
2022-09-29T01:25:11.484Z,8.6
2022-09-29T01:26:11.495Z,8.4
2022-09-29T01:27:11.533Z,8.45
2022-09-29T01:28:11.498Z,8.37
2022-09-29T01:29:11.497Z,8.31
2022-09-29T01:30:11.478Z,8.3
2022-09-29T01:31:11.531Z,8.44
2022-09-29T01:32:11.494Z,8.5
2022-09-29T01:33:11.495Z,8.58
2022-09-29T01:34:11.553Z,8.55
2022-09-29T01:35:11.493Z,8.59
2022-09-29T01:36:11.497Z,8.68
2022-09-29T01:37:11.487Z,8.69
2022-09-29T01:38:11.695Z,8.44
2022-09-29T01:39:11.485Z,8.42
2022-09-29T01:40:11.500Z,8.56
2022-09-29T01:41:11.491Z,8.56
2022-09-29T01:42:11.531Z,8.49
2022-09-29T01:43:11.492Z,8.64
2022-09-29T01:44:11.496Z,8.64
2022-09-29T01:45:11.494Z,8.71
2022-09-29T01:46:11.521Z,8.67
2022-09-29T01:47:11.496Z,8.61
2022-09-29T01:48:11.501Z,8.65
2022-09-29T01:49:11.497Z,8.21
2022-09-29T01:50:11.487Z,8.21
2022-09-29T01:51:11.498Z,8.24
2022-09-29T01:52:11.495Z,8.08
2022-09-29T01:53:11.522Z,7.87
2022-09-29T01:54:11.571Z,7.64
2022-09-29T01:55:11.491Z,7.99
2022-09-29T01:56:11.495Z,8.18
2022-09-29T01:57:11.482Z,8.2
2022-09-29T01:58:11.503Z,8.06
2022-09-29T01:59:11.493Z,8.25
2022-09-29T02:00:11.485Z,8.27
2022-09-29T02:01:11.579Z,8.29
2022-09-29T02:02:11.536Z,8.22
2022-09-29T02:03:11.502Z,8.16
2022-09-29T02:04:11.486Z,8.22
2022-09-29T02:05:11.478Z,8.21
2022-09-29T02:06:11.488Z,8.31
2022-09-29T02:07:11.484Z,8.33
2022-09-29T02:08:11.514Z,8.34
2022-09-29T02:09:11.490Z,8.28
2022-09-29T02:10:11.492Z,8.07
2022-09-29T02:11:11.477Z,8.21
2022-09-29T02:12:11.478Z,8.07
2022-09-29T02:13:11.491Z,8.07
2022-09-29T02:14:11.546Z,8.2
2022-09-29T02:15:11.485Z,8.29
2022-09-29T02:16:11.573Z,8.29
2022-09-29T02:17:11.494Z,8.4
2022-09-29T02:18:11.493Z,8.33
2022-09-29T02:19:11.488Z,8.31
2022-09-29T02:20:11.491Z,8.24
2022-09-29T02:27:11.526Z,8
2022-09-29T02:28:11.503Z,7.78
2022-09-29T02:29:11.492Z,7.84
2022-09-29T02:30:11.488Z,7.99
2022-09-29T02:31:11.507Z,7.95
2022-09-29T02:32:11.496Z,7.94
2022-09-29T02:33:11.508Z,7.97
2022-09-29T02:34:11.632Z,8.16
2022-09-29T02:35:11.499Z,7.98
2022-09-29T02:36:11.532Z,7.97
2022-09-29T02:37:11.496Z,8.03
2022-09-29T02:38:11.514Z,8.13
2022-09-29T02:39:11.516Z,8.15
2022-09-29T02:40:11.498Z,8
2022-09-29T02:41:11.493Z,8.04
2022-09-29T02:42:11.497Z,8.06
2022-09-29T02:43:11.507Z,8.08
2022-09-29T02:44:11.611Z,8.22
2022-09-29T02:45:11.493Z,7.97
2022-09-29T02:46:11.537Z,8.09
2022-09-29T02:47:11.492Z,8.13
2022-09-29T02:48:11.510Z,8.09
2022-09-29T02:49:11.499Z,8.04
2022-09-29T02:50:11.504Z,7.89
2022-09-29T02:51:11.480Z,8.11
2022-09-29T02:52:11.498Z,8.22
2022-09-29T02:53:11.507Z,8.35
2022-09-29T02:54:11.552Z,8.27
2022-09-29T02:55:11.497Z,8.22
2022-09-29T02:56:11.495Z,8.25
2022-09-29T02:57:11.501Z,8.02
2022-09-29T02:58:11.497Z,7.92
2022-09-29T02:59:11.503Z,7.96
2022-09-29T03:00:11.512Z,8.09
2022-09-29T03:01:11.539Z,8.18
2022-09-29T03:02:11.497Z,7.99
2022-09-29T03:03:11.524Z,8.09
2022-09-29T03:04:11.499Z,8.11
2022-09-29T03:05:11.499Z,8.09
2022-09-29T03:06:11.489Z,8.13
2022-09-29T03:07:11.491Z,8.13
2022-09-29T03:08:11.502Z,8.01
2022-09-29T03:09:11.510Z,7.89
2022-09-29T03:10:11.491Z,7.68
2022-09-29T03:11:11.494Z,7.71
2022-09-29T03:12:11.480Z,7.65
2022-09-29T03:13:11.494Z,7.63
2022-09-29T03:14:11.519Z,7.55
2022-09-29T03:15:11.486Z,7.53
2022-09-29T03:16:11.529Z,7.51
2022-09-29T03:17:11.520Z,7.51
2022-09-29T03:18:11.489Z,7.46
2022-09-29T03:19:11.483Z,7.41
2022-09-29T03:20:11.502Z,7.39
2022-09-29T03:21:11.484Z,7.51
2022-09-29T03:22:11.486Z,7.58
2022-09-29T03:23:11.492Z,7.77
2022-09-29T03:24:11.514Z,7.82
2022-09-29T03:25:11.484Z,7.77
2022-09-29T03:26:11.488Z,7.84
2022-09-29T03:27:11.496Z,7.91
2022-09-29T03:28:11.495Z,7.81
2022-09-29T03:29:11.494Z,7.74
2022-09-29T03:30:11.489Z,7.63
2022-09-29T03:31:11.512Z,7.43
2022-09-29T03:32:11.499Z,7.43
2022-09-29T03:33:11.512Z,7.43
2022-09-29T03:34:11.496Z,7.5
2022-09-29T03:35:11.502Z,7.39
2022-09-29T03:36:11.488Z,7.27
2022-09-29T03:37:11.492Z,7.24
2022-09-29T03:38:11.504Z,6.71
2022-09-29T03:39:11.507Z,7.14
2022-09-29T03:40:11.495Z,7.14
2022-09-29T03:41:11.494Z,7.22
2022-09-29T03:42:11.500Z,7.36
2022-09-29T03:43:11.498Z,7.45
2022-09-29T03:44:11.490Z,7.41
2022-09-29T03:45:11.503Z,7.23
2022-09-29T03:46:11.557Z,7.44
2022-09-29T03:47:11.492Z,7.52
2022-09-29T03:48:11.507Z,7.61
2022-09-29T03:49:11.497Z,7.58
2022-09-29T03:50:11.501Z,7.55
2022-09-29T03:51:11.499Z,7.52
2022-09-29T03:52:11.500Z,7.58
2022-09-29T03:53:11.581Z,7.51
2022-09-29T03:54:11.506Z,7.57
2022-09-29T03:55:11.492Z,7.49
2022-09-29T03:56:11.485Z,7.35
2022-09-29T03:57:11.492Z,7.23
2022-09-29T03:58:11.509Z,7.4
2022-09-29T03:59:11.557Z,7.47
2022-09-29T04:00:11.500Z,7.35
2022-09-29T04:01:11.635Z,7.35
2022-09-29T04:02:11.535Z,7.33
2022-09-29T04:03:11.508Z,7.13
2022-09-29T04:04:11.500Z,7.05
2022-09-29T04:05:11.497Z,7.08
2022-09-29T04:06:11.489Z,7.22
2022-09-29T04:07:11.488Z,7.09
2022-09-29T04:08:11.498Z,7
2022-09-29T04:09:11.603Z,7.07
2022-09-29T04:10:11.537Z,7.07
2022-09-29T04:11:11.497Z,7.26
2022-09-29T04:12:11.490Z,7.26
2022-09-29T04:13:11.510Z,7.13
2022-09-29T04:14:11.493Z,7.03
2022-09-29T04:15:11.506Z,6.99
2022-09-29T04:16:11.547Z,7.11
2022-09-29T04:17:11.494Z,7.15
2022-09-29T04:18:11.508Z,7.04
2022-09-29T04:19:11.544Z,7.04
2022-09-29T04:20:11.483Z,6.98
2022-09-29T04:21:11.498Z,6.8
2022-09-29T04:22:11.499Z,6.95
2022-09-29T04:23:11.492Z,7.08
2022-09-29T04:24:11.512Z,7.01
2022-09-29T04:25:11.484Z,7.23
2022-09-29T04:26:11.481Z,7.33
2022-09-29T04:27:11.488Z,7.34
2022-09-29T04:28:11.488Z,7.39
2022-09-29T04:29:11.549Z,7.32
2022-09-29T04:30:11.487Z,7.2
2022-09-29T04:31:11.545Z,7.21
2022-09-29T04:32:11.484Z,7.22
2022-09-29T04:33:11.544Z,7.17
2022-09-29T04:34:11.487Z,7.05
2022-09-29T04:35:11.480Z,6.94
2022-09-29T04:36:11.488Z,6.97
2022-09-29T04:37:11.503Z,7
2022-09-29T04:38:11.493Z,7.13
2022-09-29T04:39:11.649Z,7.21
2022-09-29T04:40:11.496Z,7.2
2022-09-29T04:41:11.496Z,7.24
2022-09-29T04:42:11.494Z,7.33
2022-09-29T04:43:11.526Z,7.34
2022-09-29T04:44:11.530Z,7.45
2022-09-29T04:45:11.492Z,7.49
2022-09-29T04:46:11.587Z,7.45
2022-09-29T04:47:11.486Z,7.34
2022-09-29T04:48:11.507Z,7.3
2022-09-29T04:49:11.537Z,7.44
2022-09-29T04:50:11.488Z,7.43
2022-09-29T04:51:11.504Z,7.7
2022-09-29T04:52:11.488Z,7.44
2022-09-29T04:53:11.504Z,7.21
2022-09-29T04:54:11.510Z,7.02
2022-09-29T04:55:11.498Z,7.03
2022-09-29T04:56:11.492Z,7.08
2022-09-29T04:57:11.498Z,7.04
2022-09-29T04:58:11.505Z,7.13
2022-09-29T04:59:11.652Z,7.13
2022-09-29T05:00:11.496Z,7.28
2022-09-29T05:01:11.561Z,7.23
2022-09-29T05:02:11.548Z,7.31
2022-09-29T05:03:11.506Z,7.24
2022-09-29T05:04:11.499Z,7.36
2022-09-29T05:05:11.500Z,7.19
2022-09-29T05:06:11.498Z,7.13
2022-09-29T05:07:11.498Z,7.04
2022-09-29T05:08:11.503Z,7.2
2022-09-29T05:09:11.556Z,7.13
2022-09-29T05:10:11.486Z,7.26
2022-09-29T05:11:11.535Z,6.85
2022-09-29T05:12:11.491Z,7.04
2022-09-29T05:13:11.504Z,6.69
2022-09-29T05:14:11.509Z,6.85
2022-09-29T05:15:11.504Z,6.95
2022-09-29T05:16:11.543Z,7.2
2022-09-29T05:17:11.498Z,7.3
2022-09-29T05:18:11.499Z,7.37
2022-09-29T05:19:11.570Z,7.33
2022-09-29T05:20:11.495Z,7.34
2022-09-29T05:21:26.648Z,7.28
2022-09-29T05:22:11.506Z,7.27
2022-09-29T05:23:11.508Z,7.25
2022-09-29T05:24:11.516Z,7.25
2022-09-29T05:25:11.508Z,7.19
2022-09-29T05:26:11.505Z,7.37
2022-09-29T05:27:11.498Z,7.49
2022-09-29T05:28:11.506Z,7.41
2022-09-29T05:29:11.549Z,7.39
2022-09-29T05:30:11.625Z,7.38
2022-09-29T05:31:11.522Z,7.37
2022-09-29T05:32:11.485Z,7.41
2022-09-29T05:33:11.493Z,7.41
2022-09-29T05:34:11.484Z,7.43
2022-09-29T05:35:11.480Z,7.63
2022-09-29T05:36:11.485Z,7.57
2022-09-29T05:37:11.485Z,7.38
2022-09-29T05:38:11.490Z,7.65
2022-09-29T05:39:11.564Z,7.75
2022-09-29T05:40:11.491Z,7.84
2022-09-29T05:41:11.480Z,8.38
2022-09-29T05:42:11.484Z,7.93
2022-09-29T05:43:11.492Z,7.76
2022-09-29T05:44:11.485Z,7.85
2022-09-29T05:45:11.480Z,7.81
2022-09-29T05:46:11.530Z,7.77
2022-09-29T05:47:11.480Z,7.92
2022-09-29T05:48:11.493Z,7.87
2022-09-29T05:49:11.484Z,7.93
2022-09-29T05:50:11.485Z,7.84
2022-09-29T05:51:11.500Z,7.82
2022-09-29T05:52:11.497Z,7.88
2022-09-29T05:53:11.511Z,7.88
2022-09-29T05:54:11.523Z,7.84
2022-09-29T05:55:11.493Z,7.71
2022-09-29T05:56:11.494Z,7.67
2022-09-29T05:57:11.497Z,7.71
2022-09-29T05:58:11.508Z,7.83
2022-09-29T05:59:11.655Z,7.92
2022-09-29T06:00:11.497Z,7.9
2022-09-29T06:01:11.566Z,7.91
2022-09-29T06:02:11.563Z,7.89
2022-09-29T06:03:11.504Z,7.69
2022-09-29T06:04:11.492Z,7.62
2022-09-29T06:05:11.491Z,7.76
2022-09-29T06:06:11.504Z,7.89
2022-09-29T06:07:11.492Z,7.85
2022-09-29T06:08:11.501Z,7.92
2022-09-29T06:09:11.532Z,7.96
2022-09-29T06:10:11.505Z,8.09
2022-09-29T06:11:11.574Z,8
2022-09-29T06:12:11.487Z,7.93
2022-09-29T06:13:11.506Z,7.96
2022-09-29T06:14:11.500Z,7.98
2022-09-29T06:15:11.497Z,8.11
2022-09-29T06:16:11.607Z,7.93
2022-09-29T06:17:11.493Z,8.01
2022-09-29T06:18:11.497Z,7.85
2022-09-29T06:19:11.604Z,7.83
2022-09-29T06:20:11.508Z,7.72
2022-09-29T06:21:11.532Z,7.83
2022-09-29T06:22:11.494Z,7.95
2022-09-29T06:23:11.505Z,8.02
2022-09-29T06:24:11.576Z,7.87
2022-09-29T06:25:11.498Z,7.92
2022-09-29T06:26:11.497Z,8.08
2022-09-29T06:27:11.498Z,8.16
2022-09-29T06:28:11.514Z,8.27
2022-09-29T06:29:11.494Z,8.44
2022-09-29T06:30:11.503Z,8.53
2022-09-29T06:31:11.500Z,8.39
2022-09-29T06:32:11.611Z,8.47
2022-09-29T06:33:11.509Z,8.5
2022-09-29T06:34:11.499Z,8.57
2022-09-29T06:35:11.501Z,8.54
2022-09-29T06:36:11.501Z,8.7
2022-09-29T06:37:11.495Z,8.69
2022-09-29T06:38:11.503Z,8.66
2022-09-29T06:39:11.683Z,8.64
2022-09-29T06:40:11.557Z,8.58
2022-09-29T06:41:11.497Z,8.61
2022-09-29T06:42:11.503Z,8.63
2022-09-29T06:43:11.516Z,8.66
2022-09-29T06:44:11.489Z,8.8
2022-09-29T06:45:11.486Z,8.91
2022-09-29T06:46:11.547Z,8.81
2022-09-29T06:47:11.485Z,8.88
2022-09-29T06:48:11.493Z,8.94
2022-09-29T06:49:11.637Z,8.83
2022-09-29T06:50:17.170Z,8.87
2022-09-29T06:51:11.484Z,8.74
2022-09-29T06:52:19.906Z,8.84
2022-09-29T06:53:11.496Z,8.91
2022-09-29T06:54:12.308Z,8.92
2022-09-29T06:55:11.480Z,8.94
2022-09-29T06:56:11.485Z,8.89
2022-09-29T06:57:11.483Z,8.88
2022-09-29T06:58:11.491Z,8.82
2022-09-29T06:59:11.499Z,8.9
2022-09-29T07:00:11.491Z,8.86
2022-09-29T07:01:11.588Z,8.92
2022-09-29T07:02:11.594Z,9.03
2022-09-29T07:03:11.500Z,8.99
2022-09-29T07:04:11.502Z,9.12
2022-09-29T07:05:11.502Z,9.14
2022-09-29T07:06:20.055Z,9.21
2022-09-29T07:07:11.502Z,9.33
2022-09-29T07:08:11.508Z,9.24
2022-09-29T07:09:11.647Z,9.34
2022-09-29T07:10:11.494Z,9.3
2022-09-29T07:11:11.492Z,9.42
2022-09-29T07:12:11.500Z,9.43
2022-09-29T07:13:11.504Z,9.3
2022-09-29T07:14:11.533Z,9.12
2022-09-29T07:15:11.500Z,9.27
2022-09-29T07:16:11.545Z,9.32
2022-09-29T07:17:11.504Z,9.4
2022-09-29T07:18:11.503Z,9.5
2022-09-29T07:19:11.494Z,9.58
2022-09-29T07:20:11.615Z,9.67
2022-09-29T07:21:11.483Z,9.72
2022-09-29T07:22:11.481Z,9.71
2022-09-29T07:23:11.558Z,9.76
2022-09-29T07:24:11.516Z,9.85
2022-09-29T07:25:19.281Z,9.92
2022-09-29T07:26:11.495Z,9.95
2022-09-29T07:27:11.504Z,9.98
2022-09-29T07:28:11.504Z,10.1
2022-09-29T07:29:15.510Z,10.1
2022-09-29T07:30:11.492Z,10.06
2022-09-29T07:31:14.878Z,10.13
2022-09-29T07:32:20.007Z,10.21
2022-09-29T07:33:11.582Z,10.08
2022-09-29T07:34:11.499Z,10.17
2022-09-29T07:35:11.495Z,10.19
2022-09-29T07:36:11.492Z,10.22
2022-09-29T07:37:11.507Z,10.22
2022-09-29T07:38:11.501Z,10.31
2022-09-29T07:39:11.518Z,10.26
2022-09-29T07:40:11.489Z,10.27
2022-09-29T07:41:11.567Z,10.21
2022-09-29T07:42:11.510Z,10.27
2022-09-29T07:43:11.506Z,10.37
2022-09-29T07:44:11.695Z,10.41
2022-09-29T07:45:11.496Z,10.39
2022-09-29T07:46:11.613Z,10.45
2022-09-29T07:47:11.498Z,10.57
2022-09-29T07:48:11.498Z,10.68
2022-09-29T07:49:11.678Z,10.77
2022-09-29T07:50:11.502Z,10.78
2022-09-29T07:51:11.504Z,10.96
2022-09-29T07:52:12.151Z,10.95
2022-09-29T07:53:11.499Z,10.89
2022-09-29T07:54:11.570Z,10.94
2022-09-29T07:55:11.482Z,10.99
2022-09-29T07:56:11.579Z,11.06
2022-09-29T07:57:11.742Z,11.2
2022-09-29T07:58:11.503Z,11.21
2022-09-29T07:59:11.507Z,11.24
2022-09-29T08:00:11.494Z,11.18
2022-09-29T08:01:11.526Z,11.09
2022-09-29T08:02:11.598Z,11.21
2022-09-29T08:03:11.489Z,11.3
2022-09-29T08:04:11.643Z,11.33
2022-09-29T08:05:11.480Z,11.34
2022-09-29T08:06:11.487Z,11.48
2022-09-29T08:07:11.489Z,11.53
2022-09-29T08:08:11.489Z,11.53
2022-09-29T08:09:11.536Z,11.56
2022-09-29T08:10:17.370Z,11.67
2022-09-29T08:11:20.841Z,11.69
2022-09-29T08:12:11.500Z,11.75
2022-09-29T08:13:11.502Z,11.74
2022-09-29T08:14:11.501Z,11.61
2022-09-29T08:15:11.498Z,11.66
2022-09-29T08:17:42.144Z,11.64
2022-09-29T08:18:40.963Z,11.54
2022-09-29T08:19:40.959Z,11.59
2022-09-29T08:20:40.964Z,11.74
2022-09-29T08:21:40.960Z,11.73
2022-09-29T08:25:43.952Z,12.06
2022-09-29T08:26:43.499Z,12.02
2022-09-29T08:27:49.741Z,11.75
2022-09-29T08:28:40.950Z,11.74
2022-09-29T08:29:45.662Z,11.86
2022-09-29T08:30:41.379Z,12.06
2022-09-29T08:31:40.984Z,12.25
2022-09-29T08:32:40.948Z,12.56
2022-09-29T08:33:40.942Z,12.71
2022-09-29T08:34:40.943Z,12.76
2022-09-29T08:35:40.950Z,12.76
2022-09-29T08:36:40.936Z,13.06
2022-09-29T08:37:40.937Z,13.16
2022-09-29T08:38:40.935Z,13.33
2022-09-29T08:39:40.936Z,13.26
2022-09-29T08:40:41.027Z,13.32
2022-09-29T08:41:40.962Z,13.17
2022-09-29T08:42:47.439Z,13.24
2022-09-29T08:43:40.997Z,13.33
2022-09-29T08:44:41.648Z,13.25
2022-09-29T08:45:55.527Z,12.81
2022-09-29T08:46:40.972Z,12.49
2022-09-29T08:47:46.055Z,12.58
2022-09-29T08:48:53.786Z,12.4
2022-09-29T08:49:40.943Z,12.34
2022-09-29T08:50:41.789Z,12.39
2022-09-29T08:51:42.620Z,12.43
2022-09-29T08:52:51.596Z,12.56
2022-09-29T08:53:41.059Z,12.4
2022-09-29T08:54:42.984Z,12.19
2022-09-29T08:55:40.937Z,12.18
2022-09-29T08:56:40.976Z,12.22
2022-09-29T08:57:40.926Z,12.24
2022-09-29T08:58:40.940Z,12.2
2022-09-29T08:59:40.930Z,12.26
2022-09-29T09:00:41.635Z,12.39
2022-09-29T09:01:40.929Z,12.49
2022-09-29T09:02:40.949Z,12.56
2022-09-29T09:03:40.937Z,12.69
2022-09-29T09:04:40.945Z,12.86
2022-09-29T09:05:40.944Z,12.83
2022-09-29T09:06:41.009Z,12.8
2022-09-29T09:07:40.940Z,12.8
2022-09-29T09:08:41.020Z,12.8
2022-09-29T09:09:40.959Z,12.91
2022-09-29T09:10:40.943Z,13.03
2022-09-29T09:11:40.933Z,13
2022-09-29T09:12:40.922Z,13.04
2022-09-29T09:13:40.935Z,12.99
2022-09-29T09:14:40.933Z,13.12
2022-09-29T09:15:40.918Z,13.03
2022-09-29T09:16:41.010Z,13.02
2022-09-29T09:17:40.917Z,13.05
2022-09-29T09:18:40.947Z,13.06
2022-09-29T09:19:40.919Z,13.01
2022-09-29T09:20:40.923Z,13.06
2022-09-29T09:21:40.917Z,13.17
2022-09-29T09:22:40.915Z,13.23
2022-09-29T09:23:40.936Z,13.27
2022-09-29T09:24:40.920Z,13.4
2022-09-29T09:25:40.936Z,13.52
2022-09-29T09:26:41.001Z,13.47
2022-09-29T09:27:40.929Z,13.59
2022-09-29T09:28:41.044Z,13.72
2022-09-29T09:29:40.927Z,13.9
2022-09-29T09:30:40.996Z,13.93
2022-09-29T09:31:40.940Z,14.09
2022-09-29T09:32:40.930Z,14.24
2022-09-29T09:33:40.933Z,14.45
2022-09-29T09:34:44.400Z,14.56
2022-09-29T09:35:52.698Z,14.59
2022-09-29T09:36:40.936Z,14.89
2022-09-29T09:37:40.915Z,15.1
2022-09-29T09:38:40.935Z,15.09
2022-09-29T09:39:40.926Z,15.04
2022-09-29T09:40:40.925Z,15.03
2022-09-29T09:41:40.942Z,15.11
2022-09-29T09:42:40.930Z,15.2
2022-09-29T09:43:40.933Z,15.12
2022-09-29T09:44:40.923Z,15.25
2022-09-29T09:45:41.015Z,15.45
2022-09-29T09:46:40.923Z,15.56
2022-09-29T09:47:40.957Z,15.68
2022-09-29T09:48:40.935Z,15.89
2022-09-29T09:49:40.934Z,15.71
2022-09-29T09:50:40.926Z,15.83
2022-09-29T09:51:40.957Z,15.85
2022-09-29T09:52:40.923Z,15.88
2022-09-29T09:53:40.982Z,15.87
2022-09-29T09:54:40.936Z,15.8
2022-09-29T09:55:40.920Z,15.81
2022-09-29T09:56:40.944Z,15.99
2022-09-29T09:57:40.919Z,16.06
2022-09-29T09:58:40.957Z,16.11
2022-09-29T09:59:40.927Z,16.11
2022-09-29T10:00:40.921Z,16.38
2022-09-29T10:01:40.990Z,16.29
2022-09-29T10:02:41.001Z,16.22
2022-09-29T10:03:40.935Z,16.28
2022-09-29T10:04:40.927Z,16.2
2022-09-29T10:05:40.922Z,16.17
2022-09-29T10:06:40.921Z,16.19
2022-09-29T10:07:40.926Z,16.19
2022-09-29T10:08:40.930Z,16.14
2022-09-29T10:09:41.001Z,16.1
2022-09-29T10:10:47.755Z,16.27
2022-09-29T10:11:40.940Z,16.3
2022-09-29T10:12:40.911Z,16.25
2022-09-29T10:13:40.942Z,16.61
2022-09-29T10:14:40.928Z,16.69
2022-09-29T10:15:40.923Z,16.72
2022-09-29T10:16:40.983Z,16.57
2022-09-29T10:17:40.924Z,16.3
2022-09-29T10:18:40.937Z,16.33
2022-09-29T10:19:40.934Z,16.48
2022-09-29T10:20:40.929Z,16.66
2022-09-29T10:21:40.916Z,16.48
2022-09-29T10:22:40.928Z,16.26
2022-09-29T10:23:40.941Z,16.56
2022-09-29T10:24:40.921Z,16.63
2022-09-29T10:25:40.918Z,16.6
2022-09-29T10:26:40.961Z,16.69
2022-09-29T10:27:40.935Z,16.66
2022-09-29T10:28:40.933Z,16.69
2022-09-29T10:29:40.934Z,16.7
2022-09-29T10:30:40.980Z,16.69
2022-09-29T10:31:41.039Z,16.72
2022-09-29T10:32:40.933Z,16.56
2022-09-29T10:33:40.949Z,16.63
2022-09-29T10:34:40.921Z,16.44
2022-09-29T10:35:40.929Z,16.54
2022-09-29T10:36:40.929Z,16.62
2022-09-29T10:37:40.919Z,16.6
2022-09-29T10:38:40.942Z,16.72
2022-09-29T10:39:40.934Z,16.85
2022-09-29T10:40:40.922Z,16.71
2022-09-29T10:41:40.936Z,16.92
2022-09-29T10:42:40.931Z,16.7
2022-09-29T10:43:40.933Z,16.76
2022-09-29T10:44:40.937Z,16.92
2022-09-29T10:45:40.967Z,16.95
2022-09-29T10:46:40.925Z,16.81
2022-09-29T10:47:40.919Z,16.62
2022-09-29T10:48:40.936Z,16.65
2022-09-29T10:49:40.920Z,16.64
2022-09-29T10:50:40.932Z,16.66
2022-09-29T10:51:40.923Z,16.39
2022-09-29T10:52:40.926Z,16.31
2022-09-29T10:53:40.927Z,16.18
2022-09-29T10:54:40.928Z,16.32
2022-09-29T10:55:40.925Z,16.37
2022-09-29T10:56:40.948Z,16.34
2022-09-29T10:57:40.926Z,16.11
2022-09-29T10:58:53.151Z,15.9
2022-09-29T10:59:40.933Z,15.5
2022-09-29T11:00:40.921Z,16.01
2022-09-29T11:01:40.921Z,16.22
2022-09-29T11:02:40.952Z,16.38
2022-09-29T11:03:40.927Z,16.57
2022-09-29T11:04:40.999Z,16.7
2022-09-29T11:05:40.930Z,16.94
2022-09-29T11:06:44.110Z,16.85
2022-09-29T11:07:40.925Z,16.69
2022-09-29T11:08:40.931Z,16.68
2022-09-29T11:09:41.021Z,16.62
2022-09-29T11:10:40.925Z,16.6
2022-09-29T11:11:40.935Z,16.73
2022-09-29T11:12:40.946Z,16.67
2022-09-29T11:13:40.944Z,16.75
2022-09-29T11:14:40.921Z,16.91
2022-09-29T11:15:40.925Z,17.04
2022-09-29T11:16:40.954Z,16.78
2022-09-29T11:17:41.063Z,16.55
2022-09-29T11:18:40.934Z,16.27
2022-09-29T11:19:40.937Z,16.47
2022-09-29T11:20:40.931Z,16.53
2022-09-29T11:21:40.924Z,16.62
2022-09-29T11:22:40.923Z,16.71
2022-09-29T11:23:40.941Z,16.71
2022-09-29T11:24:40.928Z,16.62
2022-09-29T11:25:40.932Z,16.71
2022-09-29T11:26:43.314Z,16.62
2022-09-29T11:27:40.924Z,16.59
2022-09-29T11:28:40.928Z,16.51
2022-09-29T11:29:40.935Z,16.1
2022-09-29T11:30:40.968Z,16.26
2022-09-29T11:31:40.920Z,16.25
2022-09-29T11:32:40.909Z,16.16
2022-09-29T11:33:40.937Z,16.55
2022-09-29T11:34:40.932Z,16.78
2022-09-29T11:35:40.928Z,16.88
2022-09-29T11:36:40.920Z,16.62
2022-09-29T11:37:40.926Z,16.68
2022-09-29T11:38:40.923Z,16.73
2022-09-29T11:39:40.997Z,16.9
2022-09-29T11:40:40.928Z,17.05
2022-09-29T11:41:40.967Z,17.16
2022-09-29T11:42:40.921Z,17.19
2022-09-29T11:43:41.025Z,17.17
2022-09-29T11:44:40.920Z,17.21
2022-09-29T11:45:41.003Z,17.26
2022-09-29T11:46:40.928Z,17.28
2022-09-29T11:47:40.923Z,17.17
2022-09-29T11:48:40.929Z,17.22
2022-09-29T11:49:40.946Z,17.27
2022-09-29T11:50:40.927Z,17.03
2022-09-29T11:51:40.928Z,16.94
2022-09-29T11:52:40.923Z,17
2022-09-29T11:53:40.935Z,17.01
2022-09-29T11:54:40.925Z,17.02
2022-09-29T11:55:40.930Z,16.92
2022-09-29T11:56:40.939Z,17.19
2022-09-29T11:57:40.933Z,17.24
2022-09-29T11:58:40.931Z,17.33
2022-09-29T11:59:40.925Z,17.29
2022-09-29T12:00:40.921Z,17.27
2022-09-29T12:01:40.918Z,17.26
2022-09-29T12:02:41.123Z,17.23
2022-09-29T12:03:40.928Z,17.22
2022-09-29T12:04:40.920Z,17.23
2022-09-29T12:05:40.923Z,17.21
2022-09-29T12:06:40.921Z,17.09
2022-09-29T12:07:40.915Z,17.1
2022-09-29T12:08:41.017Z,17.3
2022-09-29T12:09:40.964Z,17.01
2022-09-29T12:10:40.929Z,16.94
2022-09-29T12:11:54.731Z,17.09
2022-09-29T12:12:41.008Z,17.32
2022-09-29T12:13:40.934Z,17.45
2022-09-29T12:14:41.409Z,17.55
2022-09-29T12:15:41.214Z,17.46
2022-09-29T12:16:40.988Z,17.46
2022-09-29T12:17:40.921Z,17.36
2022-09-29T12:18:40.927Z,17.17
2022-09-29T12:19:40.941Z,16.82
2022-09-29T12:20:40.924Z,16.76
2022-09-29T12:21:40.940Z,17.05
2022-09-29T12:22:44.263Z,17.3
2022-09-29T12:23:40.940Z,17.44
2022-09-29T12:24:40.929Z,17.69
2022-09-29T12:25:40.921Z,17.8
2022-09-29T12:26:40.940Z,17.82
2022-09-29T12:27:40.926Z,17.97
2022-09-29T12:28:40.926Z,18.05
2022-09-29T12:29:40.920Z,18.13
2022-09-29T12:30:40.962Z,17.71
2022-09-29T12:31:40.928Z,17.78
2022-09-29T12:32:40.923Z,17.7
2022-09-29T12:33:40.937Z,17.62
2022-09-29T12:34:40.922Z,17.58
2022-09-29T12:35:40.936Z,17.39
2022-09-29T12:36:40.920Z,17.3
2022-09-29T12:37:40.914Z,17.45
2022-09-29T12:38:40.945Z,17.6
2022-09-29T12:39:40.929Z,17.19
2022-09-29T12:40:40.939Z,17.36
2022-09-29T12:41:41.000Z,17.36
2022-09-29T12:42:40.920Z,17.01
2022-09-29T12:43:40.928Z,16.92
2022-09-29T12:44:40.921Z,17
2022-09-29T12:45:40.928Z,16.77
2022-09-29T12:46:40.924Z,16.55
2022-09-29T12:47:40.920Z,16.56
2022-09-29T12:48:40.931Z,16.48
2022-09-29T12:49:40.913Z,16.59
2022-09-29T12:50:40.923Z,16.7
2022-09-29T12:51:40.928Z,16.66
2022-09-29T12:52:40.924Z,16.57
2022-09-29T12:53:40.938Z,16.57
2022-09-29T12:54:40.925Z,16.61
2022-09-29T12:55:40.948Z,16.76
2022-09-29T12:56:41.004Z,16.73
2022-09-29T12:57:40.937Z,16.66
2022-09-29T12:58:40.973Z,16.76
2022-09-29T12:59:40.924Z,16.73
2022-09-29T13:00:40.916Z,16.58
2022-09-29T13:01:41.037Z,16.61
2022-09-29T13:02:40.944Z,16.5
2022-09-29T13:03:40.923Z,16.16
2022-09-29T13:04:40.937Z,16.3
2022-09-29T13:05:40.926Z,16.44
2022-09-29T13:06:40.929Z,16.36
2022-09-29T13:07:40.926Z,16.22
2022-09-29T13:08:41.007Z,16.08
2022-09-29T13:09:40.989Z,16.08
2022-09-29T13:10:40.922Z,16.25
2022-09-29T13:11:40.949Z,16.31
2022-09-29T13:12:40.922Z,16.4
2022-09-29T13:13:40.939Z,16.08
2022-09-29T13:14:41.051Z,16.21
2022-09-29T13:15:45.888Z,16.31
2022-09-29T13:16:40.929Z,16.2
2022-09-29T13:17:42.600Z,15.72
2022-09-29T13:18:48.960Z,15.92
2022-09-29T13:19:56.782Z,15.97
2022-09-29T13:20:40.926Z,16.08
2022-09-29T13:21:40.912Z,16.25
2022-09-29T13:22:40.952Z,16.38
2022-09-29T13:23:40.928Z,16.35